createdAt,value
2023-04-20T00:01:48.539Z,10.96
2023-04-20T00:04:19.932Z,10.93
2023-04-20T00:06:51.785Z,10.90
2023-04-20T00:09:30.609Z,10.89
2023-04-20T00:12:06.655Z,10.86
2023-04-20T00:14:41.595Z,10.84
2023-04-20T00:17:33.787Z,10.82
2023-04-20T00:20:15.526Z,10.79
2023-04-20T00:23:19.356Z,10.74
2023-04-20T00:26:18.790Z,10.70
2023-04-20T00:29:23.272Z,10.67
2023-04-20T00:32:15.001Z,10.63
2023-04-20T00:34:50.366Z,10.59
2023-04-20T00:37:45.358Z,10.57
2023-04-20T00:40:15.445Z,10.57
2023-04-20T00:42:58.344Z,10.55
2023-04-20T00:45:59.191Z,10.55
2023-04-20T00:48:39.720Z,10.55
2023-04-20T00:51:23.028Z,10.52
2023-04-20T00:53:58.545Z,10.51
2023-04-20T00:56:43.299Z,10.49
2023-04-20T00:59:45.489Z,10.49
2023-04-20T01:02:21.650Z,10.48
2023-04-20T01:04:54.274Z,10.45
2023-04-20T01:07:32.078Z,10.43
2023-04-20T01:10:05.461Z,10.40
2023-04-20T01:16:49.268Z,10.33
2023-04-20T01:19:20.525Z,10.30
2023-04-20T01:21:54.203Z,10.29
2023-04-20T01:24:28.497Z,10.24
2023-04-20T01:27:06.261Z,10.21
2023-04-20T01:29:41.485Z,10.22
2023-04-20T01:32:21.977Z,10.23
2023-04-20T01:34:57.563Z,10.24
2023-04-20T01:37:39.570Z,10.21
2023-04-20T01:40:27.047Z,10.18
2023-04-20T01:43:07.813Z,10.16
2023-04-20T01:46:14.981Z,10.11
2023-04-20T01:49:00.186Z,10.06
2023-04-20T01:51:54.872Z,9.97
2023-04-20T01:54:39.219Z,9.88
2023-04-20T01:57:22.601Z,9.80
2023-04-20T02:00:28.745Z,9.74
2023-04-20T02:03:16.637Z,9.70
2023-04-20T02:06:02.332Z,9.63
2023-04-20T02:08:39.139Z,9.60
2023-04-20T02:11:12.399Z,9.58
2023-04-20T02:13:44.679Z,9.59
2023-04-20T02:16:44.508Z,9.61
2023-04-20T02:19:45.188Z,9.58
2023-04-20T02:22:27.662Z,9.49
2023-04-20T02:25:02.253Z,9.47
2023-04-20T02:27:42.544Z,9.49
2023-04-20T02:30:30.430Z,9.50
2023-04-20T02:33:03.039Z,9.51
2023-04-20T02:36:01.043Z,9.48
2023-04-20T02:38:38.116Z,9.45
2023-04-20T02:41:15.956Z,9.43
2023-04-20T02:43:57.197Z,9.43
2023-04-20T02:46:29.943Z,9.46
2023-04-20T02:49:34.427Z,9.48
2023-04-20T02:52:04.501Z,9.45
2023-04-20T02:54:39.513Z,9.43
2023-04-20T02:57:39.180Z,9.44
2023-04-20T03:00:46.958Z,9.43
2023-04-20T03:07:59.782Z,9.39
2023-04-20T03:10:54.424Z,9.40
2023-04-20T03:14:24.337Z,9.37
2023-04-20T03:17:00.044Z,9.33
2023-04-20T03:20:38.595Z,9.31
2023-04-20T03:23:21.796Z,9.34
2023-04-20T03:26:06.699Z,9.35
2023-04-20T03:29:00.393Z,9.33
2023-04-20T03:31:57.646Z,9.33
2023-04-20T03:34:31.662Z,9.34
2023-04-20T03:37:07.248Z,9.35
2023-04-20T03:39:51.002Z,9.33
2023-04-20T03:46:46.258Z,9.30
2023-04-20T03:49:29.225Z,9.28
2023-04-20T03:52:11.748Z,9.33
2023-04-20T03:54:55.877Z,9.32
2023-04-20T03:57:34.137Z,9.27
2023-04-20T04:00:13.751Z,9.24
2023-04-20T04:03:12.679Z,9.22
2023-04-20T04:06:40.217Z,9.22
2023-04-20T04:09:54.206Z,9.22
2023-04-20T04:12:39.236Z,9.13
2023-04-20T04:16:08.619Z,9.06
2023-04-20T04:19:19.490Z,9.01
2023-04-20T04:22:55.782Z,8.98
2023-04-20T04:25:59.859Z,8.95
2023-04-20T04:29:14.903Z,8.91
2023-04-20T04:31:50.842Z,8.89
2023-04-20T04:35:22.534Z,8.87
2023-04-20T04:38:05.665Z,8.83
2023-04-20T04:44:42.777Z,8.79
2023-04-20T04:48:59.242Z,8.87
2023-04-20T04:56:26.512Z,8.93
2023-04-20T05:00:05.886Z,8.91
2023-04-20T05:03:16.996Z,8.87
2023-04-20T05:07:18.097Z,8.88
2023-04-20T05:11:23.991Z,8.91
2023-04-20T05:15:33.767Z,8.90
2023-04-20T05:22:38.196Z,9.08
2023-04-20T05:30:21.850Z,9.21
2023-04-20T05:34:05.444Z,9.27
2023-04-20T05:37:06.429Z,9.27
2023-04-20T06:01:14.566Z,9.19
2023-04-20T06:04:48.072Z,9.18
2023-04-20T06:17:25.466Z,8.90
2023-04-20T06:21:14.116Z,8.87
2023-04-20T06:24:32.284Z,8.85
2023-04-20T06:32:14.616Z,8.94
2023-04-20T06:35:37.533Z,8.98
2023-04-20T06:38:36.025Z,8.99
2023-04-20T06:42:21.359Z,8.98
2023-04-20T06:45:34.242Z,8.97
2023-04-20T07:20:09.522Z,9.11
2023-04-20T07:25:49.894Z,9.09
2023-04-20T07:28:53.394Z,9.27
2023-04-20T07:46:48.828Z,9.32
2023-04-20T07:54:37.686Z,9.30
2023-04-20T08:01:20.229Z,9.36
2023-04-20T08:08:24.908Z,9.39
2023-04-20T09:31:14.623Z,9.68
2023-04-20T10:55:36.486Z,10.22
2023-04-20T11:04:42.858Z,10.34
2023-04-20T11:17:03.936Z,10.23
2023-04-20T11:59:06.737Z,9.95
2023-04-20T12:20:50.944Z,9.89
2023-04-20T12:33:52.224Z,9.76
2023-04-20T12:36:52.785Z,9.71
2023-04-20T12:40:37.252Z,9.67
2023-04-20T12:44:24.756Z,9.62
2023-04-20T12:56:01.612Z,9.62
2023-04-20T12:58:29.558Z,9.62
2023-04-20T13:00:56.808Z,9.66
2023-04-20T13:03:25.099Z,9.68
2023-04-20T13:05:56.188Z,9.69
2023-04-20T13:08:23.924Z,9.71
2023-04-20T13:10:51.089Z,9.70
2023-04-20T13:13:23.898Z,9.67
2023-04-20T13:15:53.674Z,9.68
2023-04-20T13:18:24.377Z,9.66
2023-04-20T13:20:55.962Z,9.68
2023-04-20T13:23:23.996Z,9.66
2023-04-20T13:29:52.255Z,9.69
2023-04-20T13:44:01.692Z,9.62
2023-04-20T13:46:57.560Z,9.55
2023-04-20T13:50:46.464Z,9.54
2023-04-20T13:53:56.242Z,9.53
2023-04-20T13:57:20.067Z,9.51
2023-04-20T14:00:29.927Z,9.49
2023-04-20T14:04:17.411Z,9.47
2023-04-20T14:12:14.708Z,9.39
2023-04-20T14:16:19.050Z,9.35
2023-04-20T14:34:02.093Z,9.17
2023-04-20T14:42:10.911Z,9.12
2023-04-20T14:44:58.864Z,9.12
2023-04-20T14:52:03.411Z,9.11
2023-04-20T14:55:43.549Z,9.05
2023-04-20T14:59:08.856Z,9.04
2023-04-20T15:02:57.445Z,9.03
2023-04-20T15:06:04.522Z,9.01
2023-04-20T15:09:20.620Z,9.01
2023-04-20T15:12:34.452Z,9.02
2023-04-20T15:33:35.123Z,8.90
2023-04-20T15:45:07.354Z,8.76
2023-04-20T16:01:54.220Z,8.59
2023-04-20T16:10:12.835Z,8.61
2023-04-20T16:13:16.386Z,8.58
2023-04-20T16:16:29.210Z,8.58
2023-04-20T16:28:58.588Z,8.61
2023-04-20T16:36:32.094Z,8.42
2023-04-20T16:44:43.245Z,8.33
2023-04-20T16:48:24.990Z,8.30
2023-04-20T16:56:02.338Z,8.36
2023-04-20T17:21:22.244Z,8.45
2023-04-20T17:24:24.597Z,8.47
2023-04-20T17:32:39.060Z,8.48
2023-04-20T17:45:02.786Z,8.55
2023-04-20T17:48:24.465Z,8.60
2023-04-20T18:00:48.413Z,8.67
2023-04-20T18:18:10.396Z,8.65
2023-04-20T18:29:43.519Z,8.61
2023-04-20T18:46:15.509Z,8.46
2023-04-20T18:58:19.433Z,8.34
2023-04-20T19:02:29.546Z,8.32
2023-04-20T19:05:49.441Z,8.31
2023-04-20T19:09:07.309Z,8.31
2023-04-20T19:12:14.787Z,8.34
2023-04-20T19:16:23.531Z,8.29
2023-04-20T19:23:45.058Z,8.19
2023-04-20T19:26:28.986Z,8.20
2023-04-20T19:42:23.831Z,8.20
2023-04-20T19:45:13.487Z,8.28
2023-04-20T19:51:03.596Z,8.28
2023-04-20T19:53:33.752Z,8.27
2023-04-20T19:56:06.204Z,8.21
2023-04-20T19:58:38.954Z,8.27
2023-04-20T20:01:14.881Z,8.29
2023-04-20T20:03:49.105Z,8.29
2023-04-20T20:06:20.177Z,8.31
2023-04-20T20:08:54.956Z,8.35
2023-04-20T20:11:29.093Z,8.38
2023-04-20T20:14:00.862Z,8.40
2023-04-20T20:16:33.234Z,8.42
2023-04-20T20:19:06.475Z,8.41
2023-04-20T20:22:01.935Z,8.38
2023-04-20T20:24:53.711Z,8.37
2023-04-20T20:27:50.510Z,8.38
2023-04-20T20:30:58.085Z,8.34
2023-04-20T20:34:10.196Z,8.34
2023-04-20T20:40:52.594Z,8.31
2023-04-20T20:44:11.750Z,8.34
2023-04-20T20:47:33.910Z,8.34
2023-04-20T20:55:36.049Z,8.34
2023-04-20T20:59:09.211Z,8.30
2023-04-20T21:02:21.335Z,8.23
2023-04-20T21:09:02.608Z,8.18
2023-04-20T21:12:24.919Z,8.17
2023-04-20T21:15:28.327Z,8.15
2023-04-20T21:27:18.792Z,8.11
2023-04-20T21:30:13.448Z,8.11
2023-04-20T21:37:59.353Z,8.11
2023-04-20T21:42:01.058Z,8.11
2023-04-20T21:47:55.021Z,8.06
2023-04-20T21:51:15.869Z,8.06
2023-04-20T21:53:58.275Z,8.04
2023-04-20T21:56:45.495Z,8.06
2023-04-20T21:59:32.819Z,8.07
2023-04-20T22:02:58.000Z,8.10
2023-04-20T22:06:34.156Z,8.10
2023-04-20T22:09:27.345Z,8.11
2023-04-20T22:12:28.872Z,8.11
2023-04-20T22:15:45.546Z,8.12
2023-04-20T22:18:23.600Z,8.12
2023-04-20T22:21:03.868Z,8.10
2023-04-20T22:24:02.358Z,8.13
2023-04-20T22:26:43.889Z,8.17
2023-04-20T22:29:21.080Z,8.20
2023-04-20T22:32:13.904Z,8.21
2023-04-20T22:38:42.607Z,8.25
2023-04-20T22:42:19.462Z,8.24
2023-04-20T22:50:20.021Z,8.27
2023-04-20T23:10:30.088Z,8.28
2023-04-20T23:13:17.924Z,8.25
2023-04-20T23:16:33.305Z,8.24
2023-04-20T23:19:26.912Z,8.24
2023-04-20T23:22:29.019Z,8.20
2023-04-20T23:25:11.683Z,8.16
2023-04-20T23:28:21.028Z,8.09
2023-04-20T23:31:41.403Z,8.02
2023-04-20T23:34:42.469Z,7.95
2023-04-20T23:44:55.862Z,7.84
2023-04-20T23:48:15.254Z,7.81
2023-04-20T23:51:03.928Z,7.80
2023-04-20T23:53:45.474Z,7.81
2023-04-20T23:56:41.233Z,7.80
2023-04-20T23:59:19.567Z,7.81
